Time;durP1;ratioP1;P1;durP2;ratioP2;P2;SDS_P1;SDS_P2;PMS_P1;PMS_P2;Temp;Humidity;BMP_temperature;BMP_pressure;BME280_temperature;BME280_humidity;BME280_pressure;Samples;Min_cycle;Max_cycle;Signal;HPM_P1;HPM_P2
2023/10/25 00:00:32;;;;;;;14.48;9.10;;;;;;;12.35;99.06;98853.22;6071893;23;20037;-84
2023/10/25 00:02:59;;;;;;;18.58;8.95;;;;;;;12.35;98.67;98855.06;6097067;23;20088;-85
2023/10/25 00:05:33;;;;;;;15.93;8.95;;;;;;;12.29;98.88;98842.44;6095552;23;20056;-84
2023/10/25 00:07:59;;;;;;;17.40;9.43;;;;;;;12.33;99.31;98844.56;6071583;23;20033;-84
2023/10/25 00:10:27;;;;;;;19.15;9.52;;;;;;;12.30;99.08;98842.25;6096322;23;20078;-85
2023/10/25 00:12:54;;;;;;;23.65;10.02;;;;;;;12.29;99.46;98848.59;6096535;23;20021;-84
2023/10/25 00:15:21;;;;;;;20.13;9.10;;;;;;;12.30;99.45;98850.25;6096440;23;20062;-84
2023/10/25 00:17:49;;;;;;;19.75;9.85;;;;;;;12.29;98.90;98851.25;6119698;23;20025;-84
2023/10/25 00:20:15;;;;;;;18.33;9.43;;;;;;;12.26;98.74;98840.94;6119810;23;20029;-83
2023/10/25 00:22:42;;;;;;;16.95;9.93;;;;;;;12.29;98.40;98845.09;6097270;23;20134;-85
2023/10/25 00:25:09;;;;;;;18.45;10.23;;;;;;;12.27;98.54;98850.59;6145090;23;20478;-84
2023/10/25 00:27:36;;;;;;;20.15;9.60;;;;;;;12.25;98.49;98855.25;6095850;23;20034;-84
2023/10/25 00:30:04;;;;;;;16.13;9.60;;;;;;;12.25;98.51;98847.25;6095758;23;20024;-83
2023/10/25 00:32:31;;;;;;;18.88;10.35;;;;;;;12.25;98.98;98847.25;6095987;23;20116;-84
2023/10/25 00:34:58;;;;;;;25.58;9.70;;;;;;;12.25;99.13;98857.91;6052081;23;20052;-89
2023/10/25 00:37:25;;;;;;;20.77;11.32;;;;;;;12.25;98.81;98860.56;6096825;23;20021;-84
2023/10/25 00:39:52;;;;;;;21.85;10.00;;;;;;;12.23;98.89;98851.91;6072207;23;20641;-84
2023/10/25 00:42:19;;;;;;;18.33;9.98;;;;;;;12.23;99.33;98859.06;6073124;23;20354;-84
2023/10/25 00:44:46;;;;;;;19.40;9.50;;;;;;;12.25;99.39;98859.75;6095494;23;20689;-84
2023/10/25 00:47:13;;;;;;;17.48;9.02;;;;;;;12.22;99.60;98849.44;6144510;23;20026;-84
2023/10/25 00:49:40;;;;;;;19.63;8.38;;;;;;;12.25;99.65;98847.25;6096052;23;20022;-83
2023/10/25 00:52:07;;;;;;;19.20;9.07;;;;;;;12.25;99.81;98846.44;6119891;23;20379;-84
2023/10/25 00:54:35;;;;;;;17.55;9.50;;;;;;;12.26;99.80;98837.44;6071632;23;20060;-84
2023/10/25 00:57:03;;;;;;;17.33;8.95;;;;;;;12.26;99.86;98845.41;6095366;23;20021;-84
2023/10/25 00:59:30;;;;;;;18.67;9.13;;;;;;;12.27;100.00;98852.44;6072348;23;20382;-84
2023/10/25 01:01:58;;;;;;;16.20;8.93;;;;;;;12.26;99.98;98850.75;6095479;23;20022;-84
2023/10/25 01:04:25;;;;;;;22.05;10.15;;;;;;;12.26;99.92;98850.75;6095234;23;20041;-84
2023/10/25 01:06:53;;;;;;;18.00;8.13;;;;;;;12.26;100.00;98853.41;6095635;23;20021;-84
2023/10/25 01:09:20;;;;;;;22.33;9.23;;;;;;;12.26;100.00;98854.25;6072995;23;20025;-84
2023/10/25 01:11:47;;;;;;;19.30;8.05;;;;;;;12.26;100.00;98858.72;6095742;23;20021;-85
2023/10/25 01:14:13;;;;;;;14.70;8.32;;;;;;;12.26;100.00;98853.41;6071332;23;20017;-84
2023/10/25 01:16:40;;;;;;;15.57;8.70;;;;;;;12.27;100.00;98847.09;6096130;23;20029;-84
2023/10/25 01:19:08;;;;;;;17.30;8.70;;;;;;;12.25;100.00;98855.25;6094907;23;20334;-86
2023/10/25 01:21:35;;;;;;;16.73;8.65;;;;;;;12.25;100.00;98849.91;6120194;23;20036;-84
2023/10/25 01:24:02;;;;;;;18.85;8.65;;;;;;;12.25;100.00;98844.59;6072256;23;20025;-84
2023/10/25 01:26:31;;;;;;;25.55;10.50;;;;;;;12.24;100.00;98840.28;6120519;23;20028;-84
2023/10/25 01:28:58;;;;;;;17.75;9.40;;;;;;;12.25;100.00;98851.75;6120947;23;20021;-84
2023/10/25 01:31:25;;;;;;;17.42;9.75;;;;;;;12.26;100.00;98848.09;6096226;23;20021;-84
2023/10/25 01:33:52;;;;;;;20.15;10.27;;;;;;;12.28;100.00;98854.06;6095350;23;20021;-84
2023/10/25 01:36:19;;;;;;;22.42;9.93;;;;;;;12.26;100.00;98862.25;6049222;23;20052;-84
2023/10/25 01:38:45;;;;;;;20.63;10.05;;;;;;;12.25;100.00;98852.59;6072126;23;20018;-84
2023/10/25 01:41:16;;;;;;;18.70;10.30;;;;;;;12.25;100.00;98846.44;6071357;23;20437;-85
2023/10/25 01:43:43;;;;;;;20.63;10.07;;;;;;;12.26;100.00;98850.75;6095550;23;20045;-86
2023/10/25 01:46:10;;;;;;;27.10;9.85;;;;;;;12.25;100.00;98857.91;6096336;23;20025;-84
2023/10/25 01:48:37;;;;;;;30.73;11.00;;;;;;;12.25;100.00;98855.25;6096514;23;20338;-83
2023/10/25 01:51:08;;;;;;;22.55;11.77;;;;;;;12.26;100.00;98848.09;6094580;23;20080;-84
2023/10/25 01:53:35;;;;;;;29.45;11.88;;;;;;;12.27;100.00;98844.44;6095571;23;20022;-83
2023/10/25 01:56:02;;;;;;;23.60;11.45;;;;;;;12.24;100.00;98837.63;6095283;23;20029;-85
2023/10/25 01:58:29;;;;;;;25.83;12.00;;;;;;;12.25;100.00;98833.94;6095253;23;20133;-83
2023/10/25 02:00:56;;;;;;;24.23;12.32;;;;;;;12.24;100.00;98831.47;6070916;23;20386;-85
2023/10/25 02:03:24;;;;;;;18.52;9.93;;;;;;;12.26;100.00;98834.78;6096214;23;20021;-83
2023/10/25 02:05:50;;;;;;;22.95;10.93;;;;;;;12.23;100.00;98835.94;6071544;23;20029;-84
2023/10/25 02:08:17;;;;;;;18.33;9.65;;;;;;;12.23;100.00;98835.94;6095906;23;20021;-84
2023/10/25 02:10:44;;;;;;;24.05;10.30;;;;;;;12.24;100.00;98842.94;6095721;23;20017;-84
2023/10/25 02:13:11;;;;;;;21.58;11.25;;;;;;;12.24;100.00;98834.13;6095331;23;20029;-84
2023/10/25 02:15:38;;;;;;;20.52;10.18;;;;;;;12.25;100.00;98839.28;6096977;23;20092;-83
2023/10/25 02:18:05;;;;;;;20.70;11.65;;;;;;;12.24;100.00;98837.63;6072107;23;20350;-84
2023/10/25 02:20:32;;;;;;;20.42;10.73;;;;;;;12.26;100.00;98845.41;6095048;23;20021;-84
2023/10/25 02:22:59;;;;;;;32.45;12.30;;;;;;;12.26;100.00;98832.13;6071706;23;20033;-84
2023/10/25 02:25:26;;;;;;;29.35;12.32;;;;;;;12.27;100.00;98831.97;6096082;23;20401;-84
2023/10/25 02:27:52;;;;;;;24.08;11.13;;;;;;;12.27;100.00;98829.28;6095018;23;20025;-84
2023/10/25 02:30:19;;;;;;;24.80;11.70;;;;;;;12.26;100.00;98821.47;6120800;23;20014;-84
2023/10/25 02:32:47;;;;;;;33.50;12.38;;;;;;;12.28;100.00;98838.09;6095445;23;20415;-84
2023/10/25 02:35:15;;;;;;;21.17;11.38;;;;;;;12.26;100.00;98824.97;6095704;23;20415;-85
2023/10/25 02:37:43;;;;;;;27.13;12.02;;;;;;;12.26;100.00;98826.78;6071004;23;20029;-84
2023/10/25 02:40:10;;;;;;;21.52;11.88;;;;;;;12.26;100.00;98827.66;6096055;23;20044;-84
2023/10/25 02:42:38;;;;;;;27.75;12.45;;;;;;;12.26;100.00;98832.13;6096139;23;20017;-84
2023/10/25 02:45:06;;;;;;;23.50;13.13;;;;;;;12.27;100.00;98825.81;6095268;23;20032;-84
2023/10/25 02:47:33;;;;;;;24.35;13.02;;;;;;;12.27;100.00;98823.16;6096783;23;20014;-83
2023/10/25 02:49:59;;;;;;;22.65;12.15;;;;;;;12.25;100.00;98819.81;6096112;23;20039;-83
2023/10/25 02:52:27;;;;;;;21.33;12.07;;;;;;;12.26;100.00;98813.47;6072062;23;20084;-85
2023/10/25 02:54:55;;;;;;;24.88;12.77;;;;;;;12.26;100.00;98803.69;6095565;23;20021;-84
2023/10/25 02:57:22;;;;;;;25.02;12.00;;;;;;;12.26;100.00;98805.50;6095281;23;20315;-84
2023/10/25 02:59:51;;;;;;;35.53;13.43;;;;;;;12.25;100.00;98804.66;6095247;23;20371;-84
2023/10/25 03:02:19;;;;;;;30.25;13.40;;;;;;;12.25;100.00;98802.00;6095401;23;20025;-84
2023/10/25 03:04:45;;;;;;;26.90;12.15;;;;;;;12.26;100.00;98802.84;6071954;23;20524;-84
2023/10/25 03:07:12;;;;;;;29.35;11.43;;;;;;;12.25;100.00;98787.88;6143820;23;20094;-84
2023/10/25 03:09:39;;;;;;;26.55;12.57;;;;;;;12.24;100.00;98779.06;6117899;23;20049;-84
2023/10/25 03:12:07;;;;;;;27.27;12.27;;;;;;;12.23;100.00;98782.72;6093756;23;20048;-87
2023/10/25 03:14:34;;;;;;;25.95;12.48;;;;;;;12.24;100.00;98784.41;6066880;23;20230;-87
2023/10/25 03:17:01;;;;;;;29.58;13.10;;;;;;;12.22;100.00;98786.38;6090992;23;20441;-86
2023/10/25 03:19:29;;;;;;;26.42;12.35;;;;;;;12.23;100.00;98782.72;6093219;23;20026;-86
2023/10/25 03:21:56;;;;;;;29.80;11.98;;;;;;;12.22;100.00;98785.56;6141817;23;20100;-86
2023/10/25 03:24:26;;;;;;;25.45;12.18;;;;;;;12.23;100.00;98788.03;6112735;23;20045;-87
2023/10/25 03:26:53;;;;;;;27.40;12.63;;;;;;;12.23;100.00;98784.56;6089469;23;20033;-87
2023/10/25 03:29:19;;;;;;;31.63;12.35;;;;;;;12.23;100.00;98790.69;6070099;23;20027;-91
2023/10/25 03:31:47;;;;;;;33.42;13.73;;;;;;;12.23;100.00;98784.56;6095082;23;20024;-91
2023/10/25 03:34:14;;;;;;;27.85;12.73;;;;;;;12.24;100.00;98784.41;6070330;23;20544;-91
2023/10/25 03:36:42;;;;;;;31.45;14.23;;;;;;;12.22;100.00;98788.22;6095585;23;20013;-91
2023/10/25 03:39:10;;;;;;;35.90;15.43;;;;;;;12.24;100.00;98783.56;6071103;23;20018;-90
2023/10/25 03:41:37;;;;;;;29.23;13.85;;;;;;;12.23;100.00;98774.72;6072176;23;20084;-91
2023/10/25 03:44:04;;;;;;;28.10;13.20;;;;;;;12.23;100.00;98773.91;6071577;23;20025;-91
2023/10/25 03:46:31;;;;;;;24.90;12.68;;;;;;;12.23;100.00;98768.59;6070526;23;20472;-91
2023/10/25 03:48:58;;;;;;;35.55;14.13;;;;;;;12.22;100.00;98766.94;6093359;23;20092;-84
2023/10/25 03:51:25;;;;;;;31.45;14.63;;;;;;;12.21;100.00;98766.09;6095077;23;20092;-84
2023/10/25 03:53:52;;;;;;;27.73;12.32;;;;;;;12.22;100.00;98759.78;6093825;23;20026;-83
2023/10/25 03:56:19;;;;;;;29.65;13.52;;;;;;;12.20;100.00;98756.44;6094482;23;20385;-84
2023/10/25 03:58:45;;;;;;;27.60;13.95;;;;;;;12.21;100.00;98749.28;6095166;23;20021;-84
2023/10/25 04:01:13;;;;;;;30.83;13.93;;;;;;;12.20;100.00;98748.47;6069450;23;20021;-84
2023/10/25 04:03:41;;;;;;;31.70;13.90;;;;;;;12.19;100.00;98746.81;6092037;23;20028;-85
2023/10/25 04:06:09;;;;;;;27.80;14.02;;;;;;;12.19;100.00;98738.84;6093610;23;20019;-84
2023/10/25 04:08:36;;;;;;;34.13;14.93;;;;;;;12.16;100.00;98728.50;6117924;23;20798;-84
2023/10/25 04:11:03;;;;;;;32.88;14.85;;;;;;;12.18;100.00;98725.69;6115223;23;20125;-85
2023/10/25 04:13:30;;;;;;;32.15;14.93;;;;;;;12.18;100.00;98734.50;6092776;23;20017;-84
2023/10/25 04:16:01;;;;;;;32.05;14.40;;;;;;;12.17;100.00;98716.88;6079340;23;20025;-85
2023/10/25 04:18:30;;;;;;;31.42;15.27;;;;;;;12.16;100.00;98724.03;6092125;23;20375;-84
2023/10/25 04:20:58;;;;;;;34.50;14.30;;;;;;;12.16;100.00;98718.72;6141779;23;20045;-86
2023/10/25 04:23:25;;;;;;;33.08;14.07;;;;;;;12.16;100.00;98713.41;6093051;23;20133;-87
2023/10/25 04:25:52;;;;;;;27.55;13.90;;;;;;;12.14;100.00;98715.41;6113874;23;20021;-85
2023/10/25 04:28:19;;;;;;;29.88;14.15;;;;;;;12.13;100.00;98712.91;6092056;23;20033;-85
2023/10/25 04:30:46;;;;;;;32.25;14.57;;;;;;;12.14;100.00;98709.25;6093282;23;20092;-85
2023/10/25 04:33:14;;;;;;;24.33;13.13;;;;;;;12.15;100.00;98716.22;6115487;23;20032;-84
2023/10/25 04:35:41;;;;;;;30.77;14.82;;;;;;;12.17;100.00;98714.22;6117369;23;20100;-86
2023/10/25 04:38:08;;;;;;;27.25;14.18;;;;;;;12.16;100.00;98713.41;6143453;23;20505;-86
2023/10/25 04:40:35;;;;;;;24.80;13.52;;;;;;;12.15;100.00;98710.91;6095506;23;20517;-85
2023/10/25 04:43:02;;;;;;;30.40;14.68;;;;;;;12.15;100.00;98706.41;6104120;23;20030;-86
2023/10/25 04:45:29;;;;;;;26.73;15.15;;;;;;;12.16;100.00;98709.88;6118420;23;20021;-86
2023/10/25 04:47:56;;;;;;;27.80;15.00;;;;;;;12.17;100.00;98711.56;6145541;23;20029;-86
2023/10/25 04:50:23;;;;;;;27.05;14.25;;;;;;;12.15;100.00;98700.25;6121400;23;20089;-85
2023/10/25 04:52:50;;;;;;;27.50;14.80;;;;;;;12.16;100.00;98705.41;6095351;23;20360;-85
2023/10/25 04:55:17;;;;;;;30.85;16.33;;;;;;;12.16;100.00;98702.75;6146778;23;20017;-86
2023/10/25 04:57:44;;;;;;;31.13;16.30;;;;;;;12.18;100.00;98699.06;6096515;23;20021;-85
2023/10/25 05:00:12;;;;;;;29.42;14.90;;;;;;;12.18;100.00;98694.56;6119815;23;20060;-86
2023/10/25 05:02:39;;;;;;;27.52;14.73;;;;;;;12.17;100.00;98698.25;6097041;23;20446;-85
2023/10/25 05:05:07;;;;;;;26.92;15.27;;;;;;;12.18;100.00;98688.44;6096692;23;20064;-86
2023/10/25 05:07:35;;;;;;;32.65;15.18;;;;;;;12.18;100.00;98689.25;6071943;23;20025;-86
2023/10/25 05:10:03;;;;;;;27.92;14.80;;;;;;;12.15;100.00;98685.09;6121062;23;20383;-85
2023/10/25 05:12:41;;;;;;;39.75;16.65;;;;;;;12.16;100.00;98680.59;6096692;23;20076;-85
2023/10/25 05:15:09;;;;;;;27.92;13.93;;;;;;;12.14;100.00;98678.16;6120722;23;20501;-85
2023/10/25 05:17:37;;;;;;;28.17;13.52;;;;;;;12.15;100.00;98671.81;6096139;23;20095;-85
2023/10/25 05:20:06;;;;;;;29.48;15.27;;;;;;;12.13;100.00;98670.31;6096382;23;20022;-86
2023/10/25 05:22:34;;;;;;;28.42;15.23;;;;;;;12.13;100.00;98672.97;6096764;23;20699;-86
2023/10/25 05:25:06;;;;;;;32.67;14.35;;;;;;;12.12;100.00;98668.69;6094262;23;20074;-85
2023/10/25 05:27:34;;;;;;;31.63;13.77;;;;;;;12.12;100.00;98669.50;6119191;23;20073;-89
2023/10/25 05:30:05;;;;;;;29.13;13.98;;;;;;;12.13;100.00;98662.34;6119072;23;20095;-90
2023/10/25 05:32:33;;;;;;;35.20;17.23;;;;;;;12.13;100.00;98662.34;6095730;23;20050;-89
2023/10/25 05:35:02;;;;;;;27.00;14.45;;;;;;;12.14;100.00;98662.19;6095563;23;20137;-89
2023/10/25 05:37:29;;;;;;;25.80;12.25;;;;;;;12.14;100.00;98666.69;6119926;23;20022;-90
2023/10/25 05:39:57;;;;;;;24.00;14.95;;;;;;;12.15;100.00;98668.31;6119632;23;20444;-90
2023/10/25 05:42:24;;;;;;;23.45;13.02;;;;;;;12.14;100.00;98658.69;6119839;23;20024;-90
2023/10/25 05:44:53;;;;;;;20.33;11.90;;;;;;;12.13;100.00;98657.00;6119374;23;20051;-89
2023/10/25 05:47:25;;;;;;;23.58;11.55;;;;;;;12.11;100.00;98643.06;6143637;23;20051;-89
2023/10/25 05:49:52;;;;;;;20.95;11.30;;;;;;;12.12;100.00;98650.88;6118319;23;20370;-89
2023/10/25 05:52:20;;;;;;;17.90;10.32;;;;;;;12.11;100.00;98645.72;6120707;23;20056;-89
2023/10/25 05:54:48;;;;;;;18.65;11.07;;;;;;;12.11;100.00;98638.59;6119698;23;20598;-90
2023/10/25 05:57:15;;;;;;;20.45;11.20;;;;;;;12.11;100.00;98648.38;6094950;23;20023;-89
2023/10/25 05:59:42;;;;;;;19.98;10.52;;;;;;;12.10;100.00;98642.22;6094938;23;20450;-89
2023/10/25 06:02:10;;;;;;;20.45;11.63;;;;;;;12.09;100.00;98637.94;6070604;23;20124;-89
2023/10/25 06:04:38;;;;;;;24.27;14.00;;;;;;;12.07;100.00;98631.94;6117857;23;20021;-90
2023/10/25 06:07:07;;;;;;;21.17;11.23;;;;;;;12.08;100.00;98632.75;6118203;23;20083;-90
2023/10/25 06:09:34;;;;;;;19.40;11.38;;;;;;;12.08;100.00;98633.59;6119072;23;20029;-86
2023/10/25 06:12:02;;;;;;;20.25;12.10;;;;;;;12.08;100.00;98635.44;6093970;23;20028;-90
2023/10/25 06:14:30;;;;;;;20.42;11.95;;;;;;;12.08;100.00;98630.09;6117770;23;20039;-90
2023/10/25 06:16:57;;;;;;;17.27;11.02;;;;;;;12.07;100.00;98639.91;6093372;23;20022;-88
2023/10/25 06:19:25;;;;;;;16.83;10.43;;;;;;;12.05;100.00;98631.28;6094783;23;20021;-90
2023/10/25 06:21:53;;;;;;;21.23;10.45;;;;;;;12.07;100.00;98641.75;6118109;23;20025;-90
2023/10/25 06:24:20;;;;;;;19.42;10.18;;;;;;;12.07;100.00;98631.13;6118485;23;20027;-90
2023/10/25 06:26:47;;;;;;;17.83;10.30;;;;;;;12.06;100.00;98626.78;6119986;23;20014;-89
2023/10/25 06:29:14;;;;;;;18.77;10.63;;;;;;;12.04;100.00;98616.34;6116701;23;20013;-90
2023/10/25 06:31:41;;;;;;;16.88;9.48;;;;;;;12.06;100.00;98624.97;6118394;23;20025;-89
2023/10/25 06:34:08;;;;;;;19.65;10.93;;;;;;;12.08;100.00;98632.75;6141857;23;20017;-89
2023/10/25 06:36:38;;;;;;;17.45;9.95;;;;;;;12.08;100.00;98628.25;6118917;23;20025;-91
2023/10/25 06:39:08;;;;;;;17.92;9.73;;;;;;;12.06;100.00;98622.31;6117252;23;20033;-89
2023/10/25 06:41:36;;;;;;;15.13;9.60;;;;;;;12.04;100.00;98624.31;6092997;23;20021;-90
2023/10/25 06:44:05;;;;;;;19.05;9.65;;;;;;;12.09;100.00;98621.13;6094162;23;20017;-91
2023/10/25 06:46:32;;;;;;;18.00;10.15;;;;;;;12.10;100.00;98617.47;6118495;23;20493;-88
2023/10/25 06:48:59;;;;;;;16.48;9.77;;;;;;;12.11;100.00;98611.97;6119238;23;20025;-90
2023/10/25 06:51:26;;;;;;;18.85;10.00;;;;;;;12.14;100.00;98606.28;6092065;23;20025;-90
2023/10/25 06:53:53;;;;;;;16.90;10.05;;;;;;;12.18;100.00;98605.94;6118787;23;20461;-90
2023/10/25 06:56:21;;;;;;;14.07;9.57;;;;;;;12.16;100.00;98606.94;6144324;23;20458;-90
2023/10/25 06:58:48;;;;;;;15.25;9.25;;;;;;;12.18;100.00;98597.94;6093842;23;20040;-90
2023/10/25 07:01:20;;;;;;;16.85;10.02;;;;;;;12.21;100.00;98601.06;6118458;23;20022;-90
2023/10/25 07:03:49;;;;;;;17.40;10.55;;;;;;;12.25;100.00;98596.25;6118282;23;20017;-90
2023/10/25 07:06:17;;;;;;;12.90;7.93;;;;;;;12.25;100.00;98588.25;6094057;23;20034;-90
2023/10/25 07:08:44;;;;;;;15.30;9.30;;;;;;;12.27;100.00;98584.41;6070178;23;20501;-89
2023/10/25 07:11:11;;;;;;;14.15;8.15;;;;;;;12.28;100.00;98579.91;6093072;23;20501;-89
2023/10/25 07:13:38;;;;;;;14.27;8.65;;;;;;;12.27;100.00;98575.63;6069954;23;20052;-90
2023/10/25 07:16:07;;;;;;;14.88;8.95;;;;;;;12.25;100.00;98570.44;6094100;23;20078;-89
2023/10/25 07:18:34;;;;;;;12.40;9.10;;;;;;;12.23;100.00;98563.66;6142854;23;20030;-91
2023/10/25 07:21:05;;;;;;;13.02;8.40;;;;;;;12.20;100.00;98562.19;6095081;23;20484;-90
2023/10/25 07:23:32;;;;;;;12.57;7.65;;;;;;;12.21;100.00;98553.16;6141750;23;20049;-90
2023/10/25 07:25:59;;;;;;;14.73;9.25;;;;;;;12.20;100.00;98542.72;6094075;23;20089;-90
2023/10/25 07:28:26;;;;;;;14.73;8.02;;;;;;;12.20;100.00;98546.19;6093145;23;20029;-89
2023/10/25 07:30:53;;;;;;;14.45;8.85;;;;;;;12.21;100.00;98550.50;6093022;23;20076;-90
2023/10/25 07:33:21;;;;;;;12.95;7.32;;;;;;;12.21;100.00;98544.38;6142537;23;20457;-90
2023/10/25 07:35:48;;;;;;;13.35;8.57;;;;;;;12.20;100.00;98540.88;6069716;23;20025;-90
2023/10/25 07:38:15;;;;;;;13.95;8.30;;;;;;;12.21;100.00;98537.19;6117053;23;20029;-90
2023/10/25 07:40:42;;;;;;;15.05;8.82;;;;;;;12.22;100.00;98538.06;6118633;23;20033;-88
2023/10/25 07:43:09;;;;;;;13.40;8.15;;;;;;;12.25;100.00;98532.38;6117696;23;20391;-90
2023/10/25 07:45:36;;;;;;;13.65;8.23;;;;;;;12.25;100.00;98529.72;6142380;23;20025;-90
2023/10/25 07:48:03;;;;;;;14.07;7.60;;;;;;;12.26;100.00;98526.88;6092753;23;20533;-90
2023/10/25 07:50:31;;;;;;;13.07;8.07;;;;;;;12.29;100.00;98529.19;6117152;23;20025;-90
2023/10/25 07:52:58;;;;;;;12.88;8.05;;;;;;;12.30;100.00;98530.81;6093449;23;20033;-90
2023/10/25 07:55:25;;;;;;;12.63;6.88;;;;;;;12.28;100.00;98522.19;6117433;23;20092;-90
2023/10/25 07:57:54;;;;;;;13.50;8.32;;;;;;;12.29;100.00;98515.88;6118639;23;20029;-90
2023/10/25 08:00:24;;;;;;;14.85;7.95;;;;;;;12.31;100.00;98519.19;6092863;23;20048;-89
2023/10/25 08:02:51;;;;;;;14.02;8.48;;;;;;;12.31;100.00;98521.84;6094495;23;20084;-89
2023/10/25 08:05:18;;;;;;;15.45;10.18;;;;;;;12.32;100.00;98509.38;6092758;23;20080;-89
2023/10/25 08:07:47;;;;;;;11.13;7.97;;;;;;;12.33;100.00;98511.00;6093231;23;20018;-89
2023/10/25 08:10:14;;;;;;;12.60;7.82;;;;;;;12.34;100.00;98508.19;6117484;23;20354;-90
2023/10/25 08:12:41;;;;;;;17.65;7.63;;;;;;;12.35;100.00;98516.97;6094838;23;20029;-91
2023/10/25 08:15:08;;;;;;;10.30;7.15;;;;;;;12.37;100.00;98501.66;6119366;23;20130;-89
2023/10/25 08:17:35;;;;;;;11.60;6.28;;;;;;;12.41;100.00;98502.94;6095585;23;20088;-89
2023/10/25 08:20:04;;;;;;;7.63;5.10;;;;;;;12.44;100.00;98499.94;6118719;23;20025;-89
2023/10/25 08:22:33;;;;;;;8.07;4.88;;;;;;;12.47;100.00;98499.56;6095997;23;20355;-89
2023/10/25 08:25:00;;;;;;;8.40;4.93;;;;;;;12.50;100.00;98495.72;6118180;23;20052;-90
2023/10/25 08:27:27;;;;;;;5.53;4.20;;;;;;;12.52;100.00;98494.53;6118915;23;20358;-89
2023/10/25 08:29:56;;;;;;;7.72;4.07;;;;;;;12.55;100.00;98496.81;6143662;23;20455;-90
2023/10/25 08:32:23;;;;;;;5.93;4.25;;;;;;;12.58;100.00;98485.00;6095725;23;20327;-89
2023/10/25 08:34:50;;;;;;;10.50;4.25;;;;;;;12.60;100.00;98488.31;6119456;23;20017;-89
2023/10/25 08:37:17;;;;;;;8.30;5.05;;;;;;;12.60;100.00;98485.63;6119047;23;20028;-89
2023/10/25 08:39:44;;;;;;;4.85;3.78;;;;;;;12.61;100.00;98492.59;6119125;23;20070;-88
2023/10/25 08:42:14;;;;;;;5.82;4.05;;;;;;;12.61;100.00;98479.28;6119488;23;20323;-89
2023/10/25 08:44:42;;;;;;;5.28;3.95;;;;;;;12.64;100.00;98475.44;6119306;23;20021;-89
2023/10/25 08:47:13;;;;;;;6.18;3.88;;;;;;;12.64;100.00;98470.13;6119446;23;20029;-89
2023/10/25 08:49:39;;;;;;;4.60;3.40;;;;;;;12.64;100.00;98460.28;6095891;23;20048;-89
2023/10/25 08:52:07;;;;;;;8.63;4.15;;;;;;;12.64;100.00;98462.13;6143760;23;20037;-88
2023/10/25 08:54:35;;;;;;;5.93;3.67;;;;;;;12.67;100.00;98464.41;6094437;23;20393;-90
2023/10/25 08:57:04;;;;;;;8.23;4.00;;;;;;;12.67;100.00;98451.09;6094528;23;20021;-89
2023/10/25 08:59:40;;;;;;;4.70;3.70;;;;;;;12.65;100.00;98443.31;6119685;23;20100;-89
2023/10/25 09:02:09;;;;;;;6.03;3.30;;;;;;;12.70;100.00;98448.91;6095393;23;20036;-89
2023/10/25 09:04:35;;;;;;;7.38;3.85;;;;;;;12.72;100.00;98444.25;6118889;23;20438;-90
2023/10/25 09:07:26;;;;;;;4.70;3.58;;;;;;;12.73;100.00;98437.06;6094206;23;20032;-89
2023/10/25 09:09:52;;;;;;;6.95;4.15;;;;;;;12.75;100.00;98438.53;6118983;23;20458;-88
2023/10/25 09:12:20;;;;;;;8.80;4.13;;;;;;;12.78;100.00;98438.16;6143040;23;20024;-90
2023/10/25 09:14:51;;;;;;;6.20;3.50;;;;;;;12.79;100.00;98420.34;6119403;23;20030;-86
2023/10/25 09:17:18;;;;;;;4.97;3.38;;;;;;;12.80;100.00;98417.50;6118971;23;20010;-89
2023/10/25 09:19:47;;;;;;;4.72;3.60;;;;;;;12.82;100.00;98403.97;6094340;23;20564;-90
2023/10/25 09:22:30;;;;;;;4.75;3.75;;;;;;;12.79;100.00;98412.34;6094140;23;20021;-90
2023/10/25 09:24:58;;;;;;;6.85;3.83;;;;;;;12.81;100.00;98411.16;6093068;23;20032;-90
2023/10/25 09:27:26;;;;;;;5.28;3.90;;;;;;;12.81;100.00;98410.31;6120004;23;20097;-89
2023/10/25 09:29:53;;;;;;;4.32;3.60;;;;;;;12.81;100.00;98405.81;6143434;23;20076;-90
2023/10/25 09:32:21;;;;;;;11.23;4.75;;;;;;;12.81;100.00;98407.66;6094232;23;20048;-89
2023/10/25 09:34:48;;;;;;;9.57;3.80;;;;;;;12.80;100.00;98409.50;6118103;23;20029;-90
2023/10/25 09:37:15;;;;;;;6.55;4.32;;;;;;;12.79;100.00;98409.69;6094717;23;20037;-89
2023/10/25 09:39:42;;;;;;;5.20;4.00;;;;;;;12.78;100.00;98406.19;6118792;23;20020;-89
2023/10/25 09:42:10;;;;;;;6.68;4.60;;;;;;;12.77;100.00;98401.91;6094174;23;20439;-89
2023/10/25 09:44:45;;;;;;;7.65;4.72;;;;;;;12.74;100.00;98406.75;6118534;23;20025;-89
2023/10/25 09:47:15;;;;;;;7.47;5.00;;;;;;;12.75;100.00;98408.41;6094116;23;20125;-90
2023/10/25 09:49:43;;;;;;;7.70;4.68;;;;;;;12.74;100.00;98406.75;6144318;23;20021;-90
2023/10/25 09:52:13;;;;;;;5.88;4.38;;;;;;;12.72;100.00;98411.44;6119628;23;20021;-90
2023/10/25 09:54:47;;;;;;;8.75;4.63;;;;;;;12.68;100.00;98403.00;6094381;23;20729;-90
2023/10/25 09:57:14;;;;;;;6.15;4.47;;;;;;;12.69;100.00;98393.97;6142909;23;20100;-89
2023/10/25 09:59:42;;;;;;;8.40;4.22;;;;;;;12.71;100.00;98393.81;6143167;23;20025;-91
2023/10/25 10:02:12;;;;;;;6.45;4.47;;;;;;;12.70;100.00;98382.34;6118627;23;20064;-90
2023/10/25 10:04:45;;;;;;;6.25;4.30;;;;;;;12.69;100.00;98374.50;6118296;23;20021;-90
2023/10/25 10:07:30;;;;;;;6.57;4.93;;;;;;;12.69;100.00;98378.00;6118963;23;20044;-89
2023/10/25 10:10:19;;;;;;;8.07;5.05;;;;;;;12.67;100.00;98373.88;6070372;23;20017;-89
2023/10/25 10:12:46;;;;;;;6.00;4.30;;;;;;;12.68;100.00;98373.69;6069439;23;20024;-90
2023/10/25 10:15:14;;;;;;;7.78;4.40;;;;;;;12.70;100.00;98365.53;6141877;23;20105;-88
2023/10/25 10:17:43;;;;;;;7.03;4.82;;;;;;;12.72;100.00;98369.66;6142614;23;20096;-89
2023/10/25 10:20:24;;;;;;;7.32;4.60;;;;;;;12.68;100.00;98357.72;6118389;23;20022;-90
2023/10/25 10:23:04;;;;;;;6.40;4.22;;;;;;;12.71;100.00;98353.84;6117526;23;20029;-90
2023/10/25 10:25:50;;;;;;;17.23;5.10;;;;;;;12.70;100.00;98350.38;6142125;23;20446;-90
2023/10/25 10:28:42;;;;;;;6.35;4.20;;;;;;;12.71;100.00;98340.53;6117777;23;20025;-90
2023/10/25 10:31:10;;;;;;;6.32;3.83;;;;;;;12.75;100.00;98342.66;6093100;23;20045;-90
2023/10/25 10:33:44;;;;;;;5.82;3.80;;;;;;;12.72;100.00;98327.03;6093965;23;20021;-89
2023/10/25 10:36:22;;;;;;;5.25;3.65;;;;;;;12.70;100.00;98326.41;6118015;23;20072;-90
2023/10/25 10:39:16;;;;;;;4.82;3.20;;;;;;;12.69;100.00;98316.75;6092720;23;20025;-90
2023/10/25 10:41:44;;;;;;;7.68;4.80;;;;;;;12.73;100.00;98315.38;6141241;23;20048;-90
2023/10/25 10:44:11;;;;;;;6.60;4.60;;;;;;;12.73;100.00;98315.38;6093751;23;20025;-90
2023/10/25 10:46:48;;;;;;;6.72;4.53;;;;;;;12.70;100.00;98318.41;6143102;23;20037;-85
2023/10/25 10:49:18;;;;;;;10.05;5.15;;;;;;;12.71;100.00;98301.41;6092871;23;20021;-89
2023/10/25 10:51:45;;;;;;;10.98;5.80;;;;;;;12.71;100.00;98298.75;6093979;23;20025;-89
2023/10/25 10:54:15;;;;;;;9.00;4.80;;;;;;;12.71;100.00;98317.38;6093280;23;20045;-89
2023/10/25 10:56:43;;;;;;;6.25;4.43;;;;;;;12.71;100.00;98301.41;6118166;23;20473;-89
2023/10/25 10:59:10;;;;;;;8.85;4.25;;;;;;;12.71;100.00;98290.75;6118007;23;20030;-89
2023/10/25 11:01:37;;;;;;;6.80;3.83;;;;;;;12.70;100.00;98272.31;6070118;23;20032;-91
2023/10/25 11:04:05;;;;;;;9.48;4.55;;;;;;;12.71;100.00;98264.13;6117820;23;20032;-90
2023/10/25 11:06:32;;;;;;;8.65;4.53;;;;;;;12.73;100.00;98237.31;6093235;23;20029;-85
2023/10/25 11:08:59;;;;;;;7.43;4.80;;;;;;;12.75;100.00;98229.97;6142800;23;20021;-90
2023/10/25 11:11:26;;;;;;;7.38;4.50;;;;;;;12.75;100.00;98235.28;6117207;23;20045;-90
2023/10/25 11:13:53;;;;;;;8.25;4.50;;;;;;;12.74;100.00;98226.44;6142910;23;20024;-90
2023/10/25 11:16:20;;;;;;;5.63;4.30;;;;;;;12.76;100.00;98227.09;6093490;23;20071;-90
2023/10/25 11:18:46;;;;;;;9.25;5.00;;;;;;;12.76;100.00;98220.94;6117499;23;20025;-90
2023/10/25 11:21:14;;;;;;;6.82;4.70;;;;;;;12.76;100.00;98220.94;6143196;23;20109;-90